Time;durP1;ratioP1;P1;durP2;ratioP2;P2;SDS_P1;SDS_P2;PMS_P1;PMS_P2;Temp;Humidity;BMP_temperature;BMP_pressure;BME280_temperature;BME280_humidity;BME280_pressure;Samples;Min_cycle;Max_cycle;Signal;HPM_P1;HPM_P2
2023/03/06 00:01:09;;;;;;;9.80;5.67;;;;;;;4.99;62.78;98661.50;5017918;28;20236;-79
2023/03/06 00:03:46;;;;;;;7.77;5.67;;;;;;;5.03;62.53;98667.22;5034795;28;20198;-79
2023/03/06 00:06:17;;;;;;;7.40;4.93;;;;;;;4.98;62.23;98664.34;5035419;28;20197;-78
2023/03/06 00:08:46;;;;;;;7.60;5.27;;;;;;;4.87;63.09;98663.97;5035475;28;20194;-80
2023/03/06 00:11:14;;;;;;;6.70;4.70;;;;;;;5.01;62.22;98672.72;5033676;28;20237;-80
2023/03/06 00:13:45;;;;;;;7.03;4.80;;;;;;;4.96;61.85;98671.69;5019811;28;20190;-79
2023/03/06 00:16:29;;;;;;;7.47;4.73;;;;;;;4.92;61.51;98673.94;5034049;28;20252;-78
2023/03/06 00:19:00;;;;;;;6.97;4.70;;;;;;;4.89;61.78;98671.72;5034111;28;20222;-80
2023/03/06 00:21:27;;;;;;;7.23;4.23;;;;;;;4.94;61.56;98677.22;5035310;28;20281;-78
2023/03/06 00:23:55;;;;;;;6.23;4.43;;;;;;;4.84;61.89;98669.69;5034258;28;20639;-78
2023/03/06 00:26:28;;;;;;;8.07;4.80;;;;;;;4.81;62.16;98670.06;5033667;28;20210;-80
2023/03/06 00:28:56;;;;;;;5.83;4.60;;;;;;;4.87;61.48;98673.75;5017973;28;20257;-78
2023/03/06 00:31:23;;;;;;;5.60;4.07;;;;;;;4.86;61.34;98667.63;5033302;28;20208;-79
2023/03/06 00:33:59;;;;;;;5.83;3.80;;;;;;;4.83;61.17;98673.34;5034801;28;20182;-80
2023/03/06 00:36:28;;;;;;;5.50;3.87;;;;;;;4.80;61.09;98663.16;5015535;28;20244;-78
2023/03/06 00:38:56;;;;;;;5.57;4.00;;;;;;;4.75;61.69;98662.16;5033470;28;20650;-81
2023/03/06 00:41:26;;;;;;;5.80;4.30;;;;;;;4.83;61.08;98664.56;5020173;28;20664;-79
2023/03/06 00:43:56;;;;;;;4.87;3.40;;;;;;;4.78;60.78;98665.19;5027830;28;20670;-79
2023/03/06 00:46:25;;;;;;;5.00;3.80;;;;;;;4.78;61.06;98661.72;5031532;28;20558;-78
2023/03/06 00:48:54;;;;;;;5.73;4.00;;;;;;;4.79;60.96;98664.19;5003349;28;20234;-78
2023/03/06 00:51:26;;;;;;;5.63;3.23;;;;;;;4.90;60.17;98662.72;5017488;28;20202;-79
2023/03/06 00:53:55;;;;;;;5.60;3.70;;;;;;;4.84;60.73;98663.56;5034162;28;20277;-80
2023/03/06 00:56:24;;;;;;;4.67;3.70;;;;;;;4.81;60.66;98662.13;5032216;28;20252;-78
2023/03/06 00:58:54;;;;;;;6.80;3.97;;;;;;;4.80;60.72;98665.81;5026328;28;20190;-79
2023/03/06 01:01:28;;;;;;;4.10;3.17;;;;;;;4.81;60.42;98658.66;5033433;28;20201;-79
2023/03/06 01:03:54;;;;;;;6.00;3.70;;;;;;;4.76;60.35;98651.31;5032971;28;20222;-79
2023/03/06 01:06:21;;;;;;;5.03;3.30;;;;;;;4.62;60.54;98647.03;5034273;28;20197;-81
2023/03/06 01:08:51;;;;;;;4.87;3.30;;;;;;;4.76;60.54;98646.00;5033114;28;20659;-81
2023/03/06 01:11:18;;;;;;;5.87;3.73;;;;;;;4.76;59.92;98639.88;5033373;28;20682;-79
2023/03/06 01:13:47;;;;;;;4.13;3.27;;;;;;;4.73;60.50;98634.97;5034398;28;20194;-80
2023/03/06 01:16:18;;;;;;;5.27;3.30;;;;;;;4.80;60.32;98628.66;5032943;28;20241;-78
2023/03/06 01:18:49;;;;;;;5.27;3.50;;;;;;;4.81;60.12;98627.63;5034359;28;20280;-80
2023/03/06 01:21:16;;;;;;;4.07;2.97;;;;;;;4.76;59.88;98627.41;4988386;28;20195;-79
2023/03/06 01:23:42;;;;;;;3.73;2.83;;;;;;;4.66;60.66;98631.53;5032655;28;20216;-79
2023/03/06 01:26:09;;;;;;;5.70;3.37;;;;;;;4.69;59.99;98631.94;5016564;28;20313;-79
2023/03/06 01:28:37;;;;;;;4.33;2.87;;;;;;;4.73;60.46;98625.19;5008219;28;20202;-79
2023/03/06 01:31:07;;;;;;;3.37;2.60;;;;;;;4.72;60.40;98623.56;5031000;28;20233;-78
2023/03/06 01:33:37;;;;;;;4.37;3.30;;;;;;;4.68;60.55;98624.16;5016875;28;20285;-80
2023/03/06 01:36:13;;;;;;;4.00;3.20;;;;;;;4.62;60.49;98615.19;5033955;28;20248;-78
2023/03/06 01:38:40;;;;;;;6.17;3.53;;;;;;;4.57;60.69;98609.72;5016400;28;20197;-80
2023/03/06 01:41:14;;;;;;;5.10;3.07;;;;;;;4.54;61.17;98612.75;5023719;28;20222;-80
2023/03/06 01:43:46;;;;;;;5.03;3.00;;;;;;;4.54;60.71;98603.97;5033523;28;20199;-79
2023/03/06 01:46:24;;;;;;;3.97;2.90;;;;;;;4.62;60.34;98601.94;5034037;28;20559;-78
2023/03/06 01:49:26;;;;;;;3.40;2.77;;;;;;;4.62;60.52;98593.97;5031898;28;20313;-79
2023/03/06 01:52:01;;;;;;;4.27;2.83;;;;;;;4.68;60.16;98595.81;5030575;28;20669;-78
2023/03/06 01:54:34;;;;;;;4.00;2.93;;;;;;;4.60;59.57;98598.69;5032247;28;20229;-81
2023/03/06 01:57:04;;;;;;;4.07;3.13;;;;;;;4.69;59.19;98596.63;5031590;28;20301;-79
2023/03/06 01:59:34;;;;;;;4.97;2.97;;;;;;;4.54;59.90;98588.88;5016024;28;20201;-78
2023/03/06 02:02:05;;;;;;;3.97;2.73;;;;;;;4.70;59.28;98593.78;5032399;28;20209;-81
2023/03/06 02:04:38;;;;;;;3.87;2.97;;;;;;;4.75;59.31;98585.19;5034645;28;20578;-80
2023/03/06 02:07:06;;;;;;;4.13;3.23;;;;;;;4.70;59.26;98585.00;5016982;28;20205;-80
2023/03/06 02:09:37;;;;;;;4.83;3.07;;;;;;;4.68;59.52;98579.88;5032358;28;20188;-79
2023/03/06 02:12:09;;;;;;;4.43;3.03;;;;;;;4.67;59.45;98580.09;5032109;28;20230;-82
2023/03/06 02:14:39;;;;;;;4.00;3.20;;;;;;;4.73;59.67;98572.13;5031659;28;20202;-81
2023/03/06 02:17:09;;;;;;;4.83;3.27;;;;;;;4.83;59.42;98574.34;5015690;28;20213;-83
2023/03/06 02:20:11;;;;;;;4.03;2.97;;;;;;;4.68;59.86;98571.09;5016231;28;20202;-80
2023/03/06 02:22:51;;;;;;;5.93;3.90;;;;;;;4.69;59.56;98565.59;5017227;28;20202;-81
2023/03/06 02:25:44;;;;;;;5.37;3.63;;;;;;;4.76;59.64;98571.69;5017360;28;20230;-79
2023/03/06 02:28:19;;;;;;;5.73;3.93;;;;;;;4.73;60.27;98572.13;5028088;28;20232;-79
2023/03/06 02:30:48;;;;;;;5.37;3.63;;;;;;;4.61;60.49;98571.13;5031577;28;20205;-78
2023/03/06 02:33:18;;;;;;;6.33;4.30;;;;;;;4.74;60.82;98568.44;5031098;28;20194;-79
2023/03/06 02:35:52;;;;;;;6.80;4.27;;;;;;;4.69;60.94;98562.94;5031669;28;20274;-79
2023/03/06 02:38:24;;;;;;;5.63;3.73;;;;;;;4.68;60.88;98568.47;5013590;28;20198;-79
2023/03/06 02:40:51;;;;;;;4.53;3.63;;;;;;;4.72;60.96;98565.19;5033109;28;20194;-81
2023/03/06 02:43:25;;;;;;;5.87;4.37;;;;;;;4.67;60.91;98562.31;5022612;28;20202;-78
2023/03/06 02:45:55;;;;;;;5.23;3.70;;;;;;;4.66;61.23;98557.25;5031595;28;20271;-81
2023/03/06 02:48:27;;;;;;;6.30;4.60;;;;;;;4.65;60.58;98550.31;5030929;28;20970;-80
2023/03/06 02:50:54;;;;;;;5.97;4.07;;;;;;;4.68;60.78;98563.16;5031349;28;20706;-79
2023/03/06 02:53:21;;;;;;;4.43;3.87;;;;;;;4.69;61.22;98556.81;5015078;28;20253;-79
2023/03/06 02:55:48;;;;;;;6.97;4.07;;;;;;;4.75;60.90;98561.31;5031285;28;20193;-80
2023/03/06 02:58:18;;;;;;;5.30;4.13;;;;;;;4.83;60.70;98555.78;5014711;28;20202;-79
2023/03/06 03:00:47;;;;;;;6.93;4.20;;;;;;;4.75;60.83;98551.50;5026409;28;20190;-82
2023/03/06 03:03:15;;;;;;;5.47;4.13;;;;;;;4.71;61.18;98552.13;5014987;28;20206;-81
2023/03/06 03:05:44;;;;;;;6.50;4.50;;;;;;;4.75;60.94;98548.03;5015606;28;20264;-80
2023/03/06 03:08:20;;;;;;;5.50;4.13;;;;;;;4.74;61.18;98541.09;5033269;28;20209;-79
2023/03/06 03:10:50;;;;;;;6.93;4.57;;;;;;;4.72;61.02;98541.28;5037371;28;20269;-78
2023/03/06 03:13:18;;;;;;;4.70;3.73;;;;;;;4.64;61.70;98538.06;5018723;28;20230;-80
2023/03/06 03:16:17;;;;;;;6.33;4.40;;;;;;;4.62;61.52;98540.13;5029585;28;20245;-80
2023/03/06 03:18:46;;;;;;;5.67;4.13;;;;;;;4.56;61.57;98539.09;5013413;28;20232;-78
2023/03/06 03:21:16;;;;;;;5.60;3.80;;;;;;;4.69;61.23;98535.59;5035092;28;20202;-80
2023/03/06 03:23:43;;;;;;;5.17;3.70;;;;;;;4.63;61.28;98525.81;5017610;28;20281;-78
2023/03/06 03:26:19;;;;;;;5.23;4.27;;;;;;;4.64;61.33;98532.75;5033512;28;20377;-79
2023/03/06 03:28:53;;;;;;;6.57;4.03;;;;;;;4.67;61.05;98527.84;5010192;28;20706;-82
2023/03/06 03:31:20;;;;;;;6.17;4.40;;;;;;;4.63;61.28;98520.50;5023949;28;20197;-79
2023/03/06 03:33:48;;;;;;;6.57;4.20;;;;;;;4.72;61.02;98530.69;5018566;28;20205;-80
2023/03/06 03:36:17;;;;;;;6.73;4.20;;;;;;;4.67;61.33;98532.31;5018907;28;20210;-80
2023/03/06 03:38:46;;;;;;;6.53;4.30;;;;;;;4.63;61.58;98523.16;5018437;28;20547;-81
2023/03/06 03:41:18;;;;;;;7.83;4.87;;;;;;;4.62;61.50;98526.84;5034684;28;20198;-80
2023/03/06 03:43:47;;;;;;;8.40;4.10;;;;;;;4.64;62.10;98522.97;5035870;28;20196;-78
2023/03/06 03:46:20;;;;;;;8.70;5.03;;;;;;;4.65;62.16;98521.13;5019308;28;20260;-80
2023/03/06 03:48:48;;;;;;;7.20;4.50;;;;;;;4.54;62.45;98517.25;5007134;28;20259;-79
2023/03/06 03:51:16;;;;;;;6.50;4.97;;;;;;;4.57;62.96;98524.00;5016216;28;20222;-79
2023/03/06 03:53:56;;;;;;;6.63;4.93;;;;;;;4.60;62.86;98519.09;5026509;28;20205;-78
2023/03/06 03:56:34;;;;;;;6.77;4.50;;;;;;;4.56;63.04;98520.53;5005681;28;20658;-79
2023/03/06 03:59:09;;;;;;;6.73;5.00;;;;;;;4.62;62.92;98514.38;5019254;28;20206;-79
2023/03/06 04:01:44;;;;;;;9.63;5.10;;;;;;;4.62;63.38;98511.72;5019098;28;20193;-81
2023/03/06 04:04:14;;;;;;;7.57;5.23;;;;;;;4.55;63.51;98504.81;5018162;28;20313;-79
2023/03/06 04:06:46;;;;;;;9.00;5.33;;;;;;;4.55;63.56;98512.78;5002037;28;20294;-79
2023/03/06 04:09:16;;;;;;;7.23;5.07;;;;;;;4.54;64.36;98514.63;5034299;28;20237;-79
2023/03/06 04:11:43;;;;;;;7.00;5.50;;;;;;;4.57;64.11;98511.56;5034120;28;20240;-78
2023/03/06 04:14:10;;;;;;;7.27;4.63;;;;;;;4.58;63.96;98505.22;5017670;28;20217;-80
2023/03/06 04:16:37;;;;;;;6.80;5.10;;;;;;;4.55;63.97;98502.97;5033973;28;20238;-79
2023/03/06 04:19:10;;;;;;;6.37;4.90;;;;;;;4.48;64.15;98504.03;5028977;28;20216;-79
2023/03/06 04:21:47;;;;;;;24.20;13.37;;;;;;;4.46;64.62;98496.28;4996098;28;20267;-79
2023/03/06 04:24:17;;;;;;;26.57;15.43;;;;;;;4.47;64.26;98507.72;5028983;28;20202;-80
2023/03/06 04:26:47;;;;;;;16.47;12.17;;;;;;;4.42;64.25;98495.06;5033257;28;20202;-79
2023/03/06 04:29:14;;;;;;;26.73;14.93;;;;;;;4.48;64.33;98494.22;5030681;28;20198;-80
2023/03/06 04:31:47;;;;;;;22.77;16.07;;;;;;;4.50;64.29;98499.31;5034142;28;20194;-80
2023/03/06 04:34:14;;;;;;;40.77;24.33;;;;;;;4.45;64.19;98492.00;5017749;28;20190;-79
2023/03/06 04:36:44;;;;;;;58.87;35.47;;;;;;;4.40;64.01;98486.50;5034526;28;20240;-80
2023/03/06 04:39:18;;;;;;;31.93;20.30;;;;;;;4.38;64.75;98488.56;5018459;28;20617;-80
2023/03/06 04:41:48;;;;;;;19.33;12.77;;;;;;;4.34;64.52;98482.00;5021063;28;20694;-79
2023/03/06 04:44:18;;;;;;;9.87;7.20;;;;;;;4.28;65.11;98478.38;5033402;28;20206;-79
2023/03/06 04:46:54;;;;;;;7.10;5.37;;;;;;;4.32;65.31;98481.41;5033627;28;20266;-78
2023/03/06 04:49:35;;;;;;;7.63;5.00;;;;;;;4.32;65.32;98481.41;5025203;28;20289;-80
2023/03/06 04:52:02;;;;;;;7.80;5.10;;;;;;;4.30;65.42;98472.84;5033152;28;20226;-79
2023/03/06 04:54:31;;;;;;;7.43;5.20;;;;;;;4.31;65.05;98477.13;5030266;28;20198;-79
2023/03/06 04:56:59;;;;;;;6.70;4.93;;;;;;;4.29;65.22;98471.25;5016737;28;20260;-79
2023/03/06 04:59:26;;;;;;;7.60;5.37;;;;;;;4.27;65.42;98467.97;5033144;28;20201;-81
2023/03/06 05:01:55;;;;;;;5.63;4.70;;;;;;;4.27;65.45;98466.13;5000517;28;20674;-81
2023/03/06 05:04:28;;;;;;;7.67;5.13;;;;;;;4.31;65.45;98463.88;5017839;28;20206;-80
2023/03/06 05:06:58;;;;;;;7.37;4.80;;;;;;;4.33;65.43;98461.84;5016799;28;20208;-79
2023/03/06 05:09:28;;;;;;;11.30;9.37;;;;;;;4.28;65.48;98465.13;5034336;28;20186;-79
2023/03/06 05:11:57;;;;;;;14.80;12.83;;;;;;;4.25;65.70;98454.91;5016372;28;20238;-80
2023/03/06 05:14:28;;;;;;;11.67;8.40;;;;;;;4.28;65.57;98449.22;5034278;28;20650;-79
2023/03/06 05:16:59;;;;;;;7.63;5.67;;;;;;;4.32;65.75;98444.28;5025979;28;20737;-79
2023/03/06 05:19:26;;;;;;;8.33;5.00;;;;;;;4.24;65.74;98445.34;5033765;28;20265;-78
2023/03/06 05:21:53;;;;;;;7.47;5.10;;;;;;;4.25;65.80;98440.84;5032435;28;20299;-80
2023/03/06 05:24:24;;;;;;;7.70;4.97;;;;;;;4.20;65.95;98444.09;5029612;28;20269;-78
2023/03/06 05:26:54;;;;;;;6.77;4.77;;;;;;;4.26;66.59;98437.97;4998650;28;20213;-80
2023/03/06 05:29:23;;;;;;;7.60;5.00;;;;;;;4.22;66.45;98436.78;5010080;28;20217;-81
2023/03/06 05:31:51;;;;;;;7.47;4.90;;;;;;;4.25;66.20;98441.66;5026760;28;20214;-79
2023/03/06 05:34:21;;;;;;;7.93;5.07;;;;;;;4.26;65.89;98437.97;5033929;28;20255;-79
2023/03/06 05:36:47;;;;;;;10.20;5.40;;;;;;;4.25;66.15;98440.84;5034001;28;20253;-79
2023/03/06 05:39:14;;;;;;;7.27;4.87;;;;;;;4.31;65.83;98447.97;5032475;28;20688;-78
2023/03/06 05:41:44;;;;;;;7.00;5.07;;;;;;;4.31;65.81;98442.66;5032662;28;20688;-79
2023/03/06 05:44:10;;;;;;;8.10;4.93;;;;;;;4.32;65.69;98444.28;5033740;28;20194;-81
2023/03/06 05:46:40;;;;;;;7.63;5.23;;;;;;;4.37;65.58;98441.84;5032537;28;20273;-80
2023/03/06 05:49:10;;;;;;;9.23;5.17;;;;;;;4.31;65.39;98451.44;5032562;28;20189;-78
2023/03/06 05:51:37;;;;;;;8.10;5.17;;;;;;;4.33;65.86;98449.41;5032660;28;20190;-78
2023/03/06 05:54:03;;;;;;;7.67;5.70;;;;;;;4.38;66.00;98446.94;5033301;28;20187;-78
2023/03/06 05:56:30;;;;;;;7.60;5.37;;;;;;;4.44;65.98;98448.75;5032668;28;20190;-81
2023/03/06 05:58:58;;;;;;;8.70;5.40;;;;;;;4.44;66.53;98450.56;5033331;28;20190;-80
2023/03/06 06:01:28;;;;;;;9.63;5.60;;;;;;;4.50;66.44;98452.41;5022670;28;20194;-80
2023/03/06 06:03:55;;;;;;;7.67;5.87;;;;;;;4.48;66.73;98449.13;5030478;28;20267;-80
2023/03/06 06:06:22;;;;;;;8.90;5.60;;;;;;;4.51;67.03;98446.06;5015999;28;20245;-79
2023/03/06 06:08:51;;;;;;;7.63;5.77;;;;;;;4.57;67.19;98442.59;5015041;28;20214;-79
2023/03/06 06:11:20;;;;;;;11.03;6.47;;;;;;;4.59;67.52;98443.19;5033319;28;20277;-79
2023/03/06 06:13:48;;;;;;;8.80;6.03;;;;;;;4.67;67.42;98434.16;5032252;28;20256;-80
2023/03/06 06:16:20;;;;;;;10.13;6.70;;;;;;;4.67;68.33;98434.16;5014930;28;20237;-78
2023/03/06 06:18:50;;;;;;;9.83;6.50;;;;;;;4.69;68.83;98437.44;5031717;28;20259;-78
2023/03/06 06:21:18;;;;;;;10.30;6.47;;;;;;;4.75;69.39;98447.22;5030627;28;20276;-80
2023/03/06 06:23:45;;;;;;;10.93;7.60;;;;;;;4.77;69.38;98445.97;5030579;28;20190;-79
2023/03/06 06:26:11;;;;;;;11.80;8.00;;;;;;;4.88;69.76;98442.66;5031116;28;20222;-80
2023/03/06 06:28:45;;;;;;;10.30;7.70;;;;;;;4.90;70.34;98447.72;5032353;28;20202;-78
2023/03/06 06:31:12;;;;;;;10.20;7.37;;;;;;;4.94;70.41;98434.88;5031412;28;20668;-80
2023/03/06 06:33:40;;;;;;;9.67;7.20;;;;;;;5.01;71.06;98448.91;5023092;28;20267;-80
2023/03/06 06:36:15;;;;;;;10.03;6.73;;;;;;;4.99;71.12;98438.53;5031197;28;20202;-80
2023/03/06 06:38:42;;;;;;;11.70;7.30;;;;;;;5.03;71.48;98441.56;5019016;28;20220;-79
2023/03/06 06:41:13;;;;;;;9.33;6.83;;;;;;;5.10;71.32;98448.44;5017327;28;20198;-79
2023/03/06 06:44:00;;;;;;;10.87;6.97;;;;;;;5.14;71.81;98439.03;5032087;28;20273;-79
2023/03/06 06:46:32;;;;;;;8.97;7.10;;;;;;;5.22;70.98;98443.28;5019440;28;20198;-80
2023/03/06 06:49:21;;;;;;;11.03;7.23;;;;;;;5.26;71.08;98440.00;5035115;28;20268;-82
2023/03/06 06:51:48;;;;;;;10.80;7.13;;;;;;;5.31;71.59;98447.31;5035617;28;20183;-81
2023/03/06 06:54:17;;;;;;;13.37;7.87;;;;;;;5.35;71.37;98431.75;5036686;28;20194;-79
2023/03/06 06:56:44;;;;;;;8.93;7.20;;;;;;;5.37;71.30;98427.84;5036679;28;20209;-80
2023/03/06 06:59:14;;;;;;;12.50;8.10;;;;;;;5.53;70.91;98427.31;5019086;28;20198;-80
2023/03/06 07:01:43;;;;;;;11.10;7.90;;;;;;;5.55;71.24;98429.78;5036925;28;20204;-80
2023/03/06 07:04:13;;;;;;;9.20;7.10;;;;;;;5.67;71.46;98438.66;5036538;28;20214;-79
2023/03/06 07:06:41;;;;;;;9.70;6.90;;;;;;;5.73;71.18;98435.97;5027911;28;20198;-81
2023/03/06 07:09:18;;;;;;;10.27;7.30;;;;;;;5.81;71.16;98431.38;5035874;28;20197;-79
2023/03/06 07:11:53;;;;;;;9.13;6.43;;;;;;;5.88;70.78;98425.00;5034911;28;20238;-82
2023/03/06 07:14:20;;;;;;;9.67;6.47;;;;;;;5.92;70.09;98428.06;5032038;28;20198;-81
2023/03/06 07:16:51;;;;;;;9.33;6.87;;;;;;;6.03;69.98;98419.34;5036399;28;20194;-81
2023/03/06 07:19:25;;;;;;;11.67;6.90;;;;;;;6.18;69.90;98425.94;5034893;28;20222;-80
2023/03/06 07:21:54;;;;;;;10.03;7.20;;;;;;;6.29;69.15;98431.56;5036307;28;20233;-81
2023/03/06 07:24:21;;;;;;;9.70;8.27;;;;;;;6.25;69.16;98433.88;5034800;28;20210;-79
2023/03/06 07:26:53;;;;;;;11.10;7.67;;;;;;;6.30;68.93;98443.84;5036357;28;20186;-78
2023/03/06 07:29:19;;;;;;;11.43;7.13;;;;;;;6.41;68.43;98448.41;5034656;28;20264;-80
2023/03/06 07:31:49;;;;;;;8.73;7.17;;;;;;;6.39;68.60;98442.53;5011030;28;20206;-77
2023/03/06 07:34:17;;;;;;;9.20;6.60;;;;;;;6.43;67.94;98438.38;5036208;28;20201;-79
2023/03/06 07:36:43;;;;;;;8.77;6.90;;;;;;;6.50;68.19;98439.91;5036072;28;20183;-78
2023/03/06 07:39:15;;;;;;;9.77;7.40;;;;;;;6.61;68.54;98435.72;5018912;28;20233;-79
2023/03/06 07:41:43;;;;;;;9.43;7.10;;;;;;;6.75;68.45;98434.50;5034667;28;20581;-77
2023/03/06 07:44:12;;;;;;;10.77;7.13;;;;;;;6.93;68.00;98439.00;5035862;28;20662;-79
2023/03/06 07:46:47;;;;;;;10.37;6.97;;;;;;;7.03;67.92;98432.09;5043555;28;20193;-78
2023/03/06 07:49:14;;;;;;;8.13;6.43;;;;;;;7.14;67.54;98433.16;5054449;28;20190;-80
2023/03/06 07:51:42;;;;;;;9.77;7.33;;;;;;;7.18;66.66;98434.34;5046736;28;20194;-79
2023/03/06 07:54:10;;;;;;;8.10;6.73;;;;;;;7.19;66.66;98427.97;5016599;28;20193;-78
2023/03/06 07:56:37;;;;;;;9.83;7.63;;;;;;;7.33;66.59;98432.06;5017990;28;20206;-78
2023/03/06 07:59:06;;;;;;;9.30;6.70;;;;;;;7.41;66.58;98436.28;5034406;28;20222;-80
2023/03/06 08:01:35;;;;;;;9.80;7.33;;;;;;;7.36;65.69;98439.63;5035281;28;20289;-79
2023/03/06 08:04:06;;;;;;;9.63;7.20;;;;;;;7.40;65.34;98434.66;5027448;28;20222;-80
2023/03/06 08:06:33;;;;;;;11.20;7.83;;;;;;;7.39;65.81;98428.50;5034419;28;20204;-78
2023/03/06 08:09:07;;;;;;;8.97;7.37;;;;;;;7.43;65.51;98420.84;5034718;28;20194;-78
2023/03/06 08:11:34;;;;;;;9.50;7.40;;;;;;;7.45;65.35;98432.94;5035726;28;20592;-79
2023/03/06 08:14:06;;;;;;;11.00;8.20;;;;;;;7.45;64.90;98421.44;5025661;28;20261;-81
2023/03/06 08:16:34;;;;;;;9.53;7.67;;;;;;;7.41;65.36;98421.09;5017421;28;20191;-78
2023/03/06 08:19:06;;;;;;;10.93;7.93;;;;;;;7.37;65.41;98425.25;5034715;28;20218;-79
2023/03/06 08:21:35;;;;;;;14.20;9.30;;;;;;;7.41;65.41;98433.59;5033215;28;20292;-78
2023/03/06 08:24:03;;;;;;;15.17;9.83;;;;;;;7.55;65.97;98426.22;5017201;28;20273;-80
2023/03/06 08:26:36;;;;;;;15.63;10.03;;;;;;;7.73;65.20;98423.47;5034061;28;20214;-79
2023/03/06 08:29:09;;;;;;;13.57;10.90;;;;;;;8.04;64.77;98420.47;5029890;28;20199;-80
2023/03/06 08:31:40;;;;;;;9.87;7.47;;;;;;;8.20;64.17;98422.44;5033888;28;20202;-79
2023/03/06 08:34:12;;;;;;;15.07;10.20;;;;;;;8.38;63.27;98421.50;5033559;28;20271;-79
2023/03/06 08:36:41;;;;;;;11.03;8.00;;;;;;;8.41;63.37;98418.38;5017480;28;20259;-78
2023/03/06 08:39:13;;;;;;;10.87;7.57;;;;;;;8.55;62.71;98416.25;5033120;28;20296;-79
2023/03/06 08:41:43;;;;;;;12.70;8.20;;;;;;;8.55;61.98;98416.25;5019973;28;20198;-78
2023/03/06 08:44:10;;;;;;;12.93;9.07;;;;;;;8.60;62.54;98413.69;5032990;28;20218;-79
2023/03/06 08:46:39;;;;;;;9.93;7.70;;;;;;;8.54;62.32;98420.78;5032930;28;20277;-78
2023/03/06 08:49:16;;;;;;;12.40;8.63;;;;;;;8.66;61.74;98412.75;5030696;28;20278;-78
2023/03/06 08:51:43;;;;;;;11.37;7.60;;;;;;;8.87;61.70;98416.59;5016703;28;20190;-78
2023/03/06 08:54:13;;;;;;;12.87;9.87;;;;;;;9.06;61.92;98421.53;5032854;28;20720;-81
2023/03/06 08:56:44;;;;;;;28.60;19.33;;;;;;;9.14;60.78;98415.84;5033146;28;20588;-78
2023/03/06 08:59:12;;;;;;;19.83;14.40;;;;;;;9.11;60.70;98415.47;5016355;28;20217;-78
2023/03/06 09:01:43;;;;;;;14.73;10.60;;;;;;;9.16;60.43;98416.38;5032550;28;20206;-77
2023/03/06 09:04:10;;;;;;;13.87;10.50;;;;;;;9.28;60.62;98419.00;5028195;28;20224;-78
2023/03/06 09:06:44;;;;;;;15.30;11.27;;;;;;;9.33;60.29;98405.75;5032253;28;20292;-79
2023/03/06 09:09:11;;;;;;;11.00;8.90;;;;;;;9.49;59.90;98412.13;5024904;28;20247;-78
2023/03/06 09:11:43;;;;;;;10.67;8.13;;;;;;;9.50;59.65;98405.75;5028157;28;20264;-80
2023/03/06 09:14:10;;;;;;;15.27;9.60;;;;;;;9.73;59.79;98405.59;5033389;28;21433;-80
2023/03/06 09:16:43;;;;;;;11.27;8.33;;;;;;;9.87;59.61;98406.88;5012130;28;20252;-83
2023/03/06 09:19:12;;;;;;;11.00;9.43;;;;;;;10.07;58.80;98403.72;5032974;28;20273;-78
2023/03/06 09:21:39;;;;;;;11.03;9.00;;;;;;;10.09;58.43;98407.75;5028177;28;20190;-79
2023/03/06 09:24:10;;;;;;;11.03;8.27;;;;;;;10.16;58.75;98407.63;5031996;28;20641;-79
2023/03/06 09:26:39;;;;;;;10.57;8.40;;;;;;;10.28;58.07;98410.97;5032992;28;20197;-79
2023/03/06 09:29:20;;;;;;;9.87;7.93;;;;;;;10.30;58.74;98405.41;5029348;28;20197;-79
2023/03/06 09:31:48;;;;;;;10.67;7.80;;;;;;;10.34;58.16;98401.16;5031978;28;20186;-79
2023/03/06 09:34:22;;;;;;;12.00;8.03;;;;;;;10.39;58.00;98403.91;5033132;28;20190;-79
2023/03/06 09:36:50;;;;;;;10.53;7.67;;;;;;;10.45;57.97;98405.59;5032528;28;20621;-78
2023/03/06 09:39:26;;;;;;;10.23;7.97;;;;;;;10.54;57.67;98404.09;5002490;28;20219;-79
2023/03/06 09:41:57;;;;;;;10.97;7.87;;;;;;;10.64;56.81;98390.81;5036972;28;20668;-78
2023/03/06 09:44:30;;;;;;;13.97;10.07;;;;;;;10.58;57.06;98400.69;5016620;28;20277;-79
2023/03/06 09:47:34;;;;;;;11.40;8.97;;;;;;;10.68;56.48;98401.88;5009195;28;20194;-80
2023/03/06 09:50:19;;;;;;;10.20;9.10;;;;;;;10.88;57.17;98400.22;5014842;28;20183;-78
2023/03/06 09:53:07;;;;;;;10.97;8.70;;;;;;;10.97;56.70;98405.94;5024155;28;20224;-79
2023/03/06 09:55:36;;;;;;;9.90;8.30;;;;;;;11.07;56.85;98410.59;5015446;28;20264;-78
2023/03/06 09:58:20;;;;;;;10.73;7.73;;;;;;;11.24;56.24;98408.66;5014761;28;20256;-77
2023/03/06 10:01:01;;;;;;;9.47;7.60;;;;;;;11.19;55.96;98405.91;4998887;28;20194;-78
2023/03/06 10:03:55;;;;;;;10.70;7.67;;;;;;;11.11;56.26;98407.16;5028641;28;20265;-78
2023/03/06 10:06:47;;;;;;;9.83;7.37;;;;;;;11.12;55.49;98405.28;5011584;28;20205;-78
2023/03/06 10:09:24;;;;;;;9.73;7.80;;;;;;;11.08;55.66;98407.69;5031167;28;20210;-78
2023/03/06 10:11:57;;;;;;;12.03;10.30;;;;;;;11.00;56.07;98398.22;5031173;28;20256;-78
2023/03/06 10:14:36;;;;;;;9.17;7.97;;;;;;;11.03;56.32;98403.06;5031579;28;20194;-78
2023/03/06 10:17:18;;;;;;;10.60;8.13;;;;;;;11.12;55.71;98392.69;5015242;28;20210;-79
2023/03/06 10:19:49;;;;;;;10.50;7.97;;;;;;;11.12;55.93;98398.06;5012931;28;20233;-78
2023/03/06 10:22:35;;;;;;;9.60;7.90;;;;;;;11.19;56.06;98389.84;5015625;28;20261;-80
2023/03/06 10:25:02;;;;;;;12.07;8.07;;;;;;;11.32;55.64;98389.41;5031574;28;20251;-78
2023/03/06 10:27:54;;;;;;;9.37;7.77;;;;;;;11.38;55.15;98391.09;5031514;28;20202;-80
2023/03/06 10:30:45;;;;;;;8.87;7.90;;;;;;;11.28;55.67;98385.63;5031072;28;20196;-79
2023/03/06 10:33:54;;;;;;;9.43;7.70;;;;;;;11.40;55.29;98378.22;5028953;28;20213;-79
2023/03/06 10:36:26;;;;;;;11.77;8.20;;;;;;;11.42;54.99;98376.91;4953734;28;20296;-79
2023/03/06 10:38:54;;;;;;;9.00;7.77;;;;;;;11.51;55.03;98369.22;4971639;28;20700;-78
2023/03/06 10:41:28;;;;;;;11.33;8.57;;;;;;;11.62;55.40;98368.19;4943529;28;20290;-79
2023/03/06 10:44:03;;;;;;;13.07;8.67;;;;;;;11.63;55.21;98366.34;4953481;28;20204;-78
2023/03/06 10:46:44;;;;;;;10.20;8.30;;;;;;;11.62;55.24;98362.84;4969001;28;20678;-78
2023/03/06 10:49:13;;;;;;;12.27;8.00;;;;;;;11.67;55.23;98362.88;4954208;28;20187;-78
2023/03/06 10:51:58;;;;;;;11.80;8.73;;;;;;;11.85;55.16;98349.09;5022635;28;20237;-79
2023/03/06 10:54:31;;;;;;;12.07;9.17;;;;;;;11.87;55.41;98348.84;5029346;28;20190;-77
2023/03/06 10:57:17;;;;;;;11.40;8.93;;;;;;;11.77;55.04;98338.03;4998362;28;20218;-77
2023/03/06 10:59:56;;;;;;;9.27;8.20;;;;;;;11.94;55.04;98338.69;5012275;28;20309;-78
2023/03/06 11:02:32;;;;;;;12.13;9.27;;;;;;;11.98;55.04;98336.28;5014004;28;20205;-79
2023/03/06 11:05:03;;;;;;;10.47;8.53;;;;;;;12.03;54.91;98334.44;5014720;28;20226;-79
2023/03/06 11:07:31;;;;;;;10.87;8.27;;;;;;;12.03;55.09;98331.78;5013238;28;20715;-78
2023/03/06 11:09:58;;;;;;;11.10;8.90;;;;;;;12.06;55.22;98328.56;5031004;28;20236;-79
2023/03/06 11:12:33;;;;;;;10.53;8.40;;;;;;;12.03;55.44;98330.97;5032199;28;20230;-79
2023/03/06 11:15:17;;;;;;;10.93;8.73;;;;;;;12.07;54.97;98322.13;5032122;28;20673;-78
2023/03/06 11:17:50;;;;;;;11.63;9.10;;;;;;;12.09;55.13;98322.66;5032162;28;20198;-80
2023/03/06 11:20:20;;;;;;;10.23;8.50;;;;;;;12.16;55.36;98325.94;5010545;28;20197;-79
2023/03/06 11:22:54;;;;;;;11.67;9.40;;;;;;;12.26;55.36;98320.59;4997760;28;20209;-81
2023/03/06 11:25:53;;;;;;;11.17;8.70;;;;;;;12.41;54.76;98313.69;5017664;28;20770;-79
2023/03/06 11:28:42;;;;;;;10.53;9.10;;;;;;;12.40;54.96;98312.06;5028493;28;20737;-78
2023/03/06 11:31:17;;;;;;;12.00;10.10;;;;;;;12.48;54.45;98303.50;5031596;28;20216;-79
2023/03/06 11:34:20;;;;;;;10.07;8.53;;;;;;;12.38;54.23;98300.75;5036720;28;20200;-80
2023/03/06 11:37:10;;;;;;;12.57;9.13;;;;;;;12.29;54.38;98306.66;5034299;28;20194;-78
2023/03/06 11:40:23;;;;;;;11.33;9.67;;;;;;;12.36;54.64;98290.31;5034045;28;20228;-79
2023/03/06 11:43:18;;;;;;;11.67;9.77;;;;;;;12.33;55.34;98286.25;5034945;28;20198;-78
2023/03/06 11:45:52;;;;;;;13.03;9.80;;;;;;;12.58;54.79;98284.72;5035720;28;20194;-78
2023/03/06 11:48:34;;;;;;;10.03;8.73;;;;;;;12.58;53.46;98280.16;5035094;28;20256;-78
2023/03/06 11:51:18;;;;;;;12.37;9.67;;;;;;;12.73;53.28;98274.81;5032823;28;20210;-78
2023/03/06 11:53:44;;;;;;;10.73;9.10;;;;;;;12.84;52.96;98274.81;5014609;28;20197;-78
2023/03/06 11:56:15;;;;;;;12.77;9.53;;;;;;;12.87;53.07;98261.69;5033759;28;20205;-79
2023/03/06 11:59:11;;;;;;;11.53;9.00;;;;;;;12.88;52.96;98255.19;5033981;28;20210;-79
2023/03/06 12:02:10;;;;;;;10.47;8.80;;;;;;;13.04;52.32;98259.53;5031153;28;20225;-78